Time;durP1;ratioP1;P1;durP2;ratioP2;P2;SDS_P1;SDS_P2;PMS_P1;PMS_P2;Temp;Humidity;BMP_temperature;BMP_pressure;BME280_temperature;BME280_humidity;BME280_pressure;Samples;Min_cycle;Max_cycle;Signal;HPM_P1;HPM_P2
2022/09/11 00:00:55;;;;;;;37.73;35.63;;;14.40;99.90;;;;;;4973124;28;20189;-76
2022/09/11 00:03:23;;;;;;;37.00;35.13;;;14.40;99.90;;;;;;4954941;28;20213;-76
2022/09/11 00:05:50;;;;;;;18.07;16.80;;;14.40;99.90;;;;;;4972233;28;20204;-78
2022/09/11 00:08:20;;;;;;;12.00;11.33;;;14.40;99.90;;;;;;4955282;28;20178;-76
2022/09/11 00:10:47;;;;;;;10.17;9.67;;;14.40;99.90;;;;;;4973146;28;20227;-75
2022/09/11 00:13:16;;;;;;;9.57;8.57;;;14.40;99.90;;;;;;4956047;28;20192;-76
2022/09/11 00:15:44;;;;;;;10.03;9.43;;;14.40;99.90;;;;;;4955963;28;20271;-76
2022/09/11 00:18:12;;;;;;;11.30;10.60;;;14.40;99.90;;;;;;4972367;28;20188;-76
2022/09/11 00:20:38;;;;;;;11.70;10.97;;;14.30;99.90;;;;;;4973136;28;20184;-76
2022/09/11 00:23:05;;;;;;;9.67;9.07;;;14.30;99.90;;;;;;4954744;28;20201;-76
2022/09/11 00:25:35;;;;;;;15.13;14.33;;;14.30;99.90;;;;;;4971288;28;20682;-76
2022/09/11 00:28:01;;;;;;;8.67;8.23;;;14.30;99.90;;;;;;4954721;28;20205;-76
2022/09/11 00:30:28;;;;;;;8.83;8.13;;;14.30;99.90;;;;;;4971839;28;20169;-75
2022/09/11 00:32:54;;;;;;;9.47;8.57;;;14.30;99.90;;;;;;4972589;28;20189;-76
2022/09/11 00:35:20;;;;;;;9.17;8.37;;;14.30;99.90;;;;;;4955529;28;20568;-76
2022/09/11 00:37:47;;;;;;;9.87;9.30;;;14.30;99.90;;;;;;4971864;28;20260;-76
2022/09/11 00:40:14;;;;;;;10.37;9.77;;;14.30;99.90;;;;;;4972882;28;20658;-76
2022/09/11 00:42:41;;;;;;;8.93;8.33;;;14.30;99.90;;;;;;4972241;28;20218;-76
2022/09/11 00:45:15;;;;;;;8.47;7.97;;;14.40;99.90;;;;;;4972783;28;20200;-76
2022/09/11 00:47:42;;;;;;;11.90;11.30;;;14.30;99.90;;;;;;4953940;28;20626;-76
2022/09/11 00:50:18;;;;;;;11.97;11.27;;;14.30;99.90;;;;;;4970850;28;20181;-76
2022/09/11 00:52:53;;;;;;;11.33;10.77;;;14.30;99.90;;;;;;4955107;28;20219;-77
2022/09/11 00:55:22;;;;;;;9.20;8.30;;;14.40;99.90;;;;;;4972136;28;20196;-78
2022/09/11 00:57:57;;;;;;;7.83;7.27;;;14.30;99.90;;;;;;4971776;28;20188;-77
2022/09/11 01:00:23;;;;;;;8.57;8.17;;;14.30;99.90;;;;;;4972467;28;20215;-76
2022/09/11 01:02:50;;;;;;;14.87;13.80;;;14.30;99.90;;;;;;4955235;28;20212;-77
2022/09/11 01:05:18;;;;;;;18.23;17.03;;;14.40;99.90;;;;;;4971599;28;20271;-77
2022/09/11 01:07:46;;;;;;;18.93;17.97;;;14.40;99.90;;;;;;4954439;28;20181;-77
2022/09/11 01:10:13;;;;;;;18.43;17.50;;;14.30;99.90;;;;;;4953812;28;20176;-77
2022/09/11 01:12:57;;;;;;;25.30;24.00;;;14.40;99.90;;;;;;4971805;28;20188;-76
2022/09/11 01:15:25;;;;;;;26.33;24.87;;;14.40;99.90;;;;;;4971509;28;20605;-76
2022/09/11 01:18:02;;;;;;;16.00;15.10;;;14.40;99.90;;;;;;4971158;28;20269;-76
2022/09/11 01:20:37;;;;;;;21.07;20.00;;;14.40;99.90;;;;;;4972115;28;20196;-76
2022/09/11 01:23:36;;;;;;;13.03;12.17;;;14.40;99.90;;;;;;4972054;28;20212;-77
2022/09/11 01:26:25;;;;;;;6.13;5.83;;;14.50;99.90;;;;;;4972029;28;20732;-76
2022/09/11 01:28:59;;;;;;;9.93;9.07;;;14.50;99.90;;;;;;4970019;28;20272;-77
2022/09/11 01:31:31;;;;;;;8.40;8.00;;;14.50;99.90;;;;;;4971504;28;20177;-76
2022/09/11 01:34:04;;;;;;;10.50;10.00;;;14.50;99.90;;;;;;4962418;28;20204;-77
2022/09/11 01:36:45;;;;;;;47.27;44.63;;;14.50;99.90;;;;;;4985637;28;20224;-77
2022/09/11 01:39:14;;;;;;;64.70;61.10;;;14.60;99.90;;;;;;4958525;28;20189;-77
2022/09/11 01:41:44;;;;;;;107.00;101.17;;;14.60;99.90;;;;;;4972606;28;20181;-77
2022/09/11 01:44:21;;;;;;;90.57;85.77;;;14.60;99.90;;;;;;4972355;28;20542;-77
2022/09/11 01:46:51;;;;;;;86.20;81.57;;;14.60;99.90;;;;;;4954330;28;20205;-77
2022/09/11 01:49:42;;;;;;;98.00;92.77;;;14.60;99.90;;;;;;4969982;28;20340;-77
2022/09/11 01:52:14;;;;;;;83.90;79.40;;;14.60;99.90;;;;;;4970753;28;20336;-77
2022/09/11 01:55:19;;;;;;;93.47;88.53;;;14.60;99.90;;;;;;4954333;28;20185;-76
2022/09/11 01:58:09;;;;;;;83.03;78.70;;;14.60;99.90;;;;;;4953684;28;20242;-77
2022/09/11 02:00:37;;;;;;;44.13;41.77;;;14.60;99.90;;;;;;4972029;28;20197;-76
2022/09/11 02:03:15;;;;;;;7.43;6.70;;;14.60;99.90;;;;;;4975300;28;20215;-76
2022/09/11 02:05:53;;;;;;;74.83;70.97;;;14.70;99.90;;;;;;4975548;28;20205;-76
2022/09/11 02:08:48;;;;;;;237.53;224.73;;;14.70;99.90;;;;;;4974752;28;20187;-76
2022/09/11 02:11:15;;;;;;;221.80;209.73;;;14.70;99.90;;;;;;4972270;28;20633;-76
2022/09/11 02:14:12;;;;;;;223.43;211.50;;;14.70;99.90;;;;;;4975281;28;20185;-76
2022/09/11 02:16:44;;;;;;;225.67;213.53;;;14.70;99.90;;;;;;4973787;28;20219;-76
2022/09/11 02:19:13;;;;;;;121.13;114.60;;;14.70;99.90;;;;;;4974638;28;20232;-76
2022/09/11 02:21:39;;;;;;;106.47;100.93;;;14.70;99.90;;;;;;4975744;28;20302;-76
2022/09/11 02:24:05;;;;;;;49.20;46.60;;;14.70;99.90;;;;;;4975386;28;20184;-76
2022/09/11 02:26:37;;;;;;;13.53;12.80;;;14.70;99.90;;;;;;4974524;28;20193;-76
2022/09/11 02:29:04;;;;;;;22.40;21.30;;;14.70;99.90;;;;;;4956469;28;20658;-76
2022/09/11 02:31:32;;;;;;;28.37;26.90;;;14.70;99.90;;;;;;4955494;28;20174;-76
2022/09/11 02:33:57;;;;;;;24.13;23.00;;;14.80;99.90;;;;;;4976768;28;20332;-77
2022/09/11 02:36:47;;;;;;;39.80;37.50;;;14.80;99.90;;;;;;4980426;28;20204;-77
2022/09/11 02:39:46;;;;;;;47.63;45.20;;;14.70;99.90;;;;;;4957881;28;20721;-77
2022/09/11 02:42:49;;;;;;;54.47;51.57;;;14.80;99.90;;;;;;5455777;23;20236;-77
2022/09/11 02:45:24;;;;;;;55.17;52.50;;;14.80;99.90;;;;;;4994021;28;20278;-77
2022/09/11 02:48:11;;;;;;;49.73;47.23;;;14.90;99.90;;;;;;4991794;28;20184;-77
2022/09/11 02:51:10;;;;;;;49.40;46.90;;;14.90;99.90;;;;;;4994436;28;20212;-77
2022/09/11 02:54:07;;;;;;;56.40;53.50;;;14.80;99.90;;;;;;4993325;28;20192;-77
2022/09/11 02:56:51;;;;;;;107.97;102.30;;;14.90;99.90;;;;;;4990229;23;20619;-78
2022/09/11 02:59:20;;;;;;;68.30;64.90;;;14.90;99.90;;;;;;4969663;29;20559;-79
2022/09/11 03:01:51;;;;;;;139.03;131.73;;;14.90;99.90;;;;;;4953930;29;20609;-79
2022/09/11 03:04:19;;;;;;;90.37;85.57;;;14.90;99.90;;;;;;4980916;28;20181;-78
2022/09/11 03:06:47;;;;;;;157.27;149.10;;;14.90;99.90;;;;;;4989030;28;20198;-80
2022/09/11 03:09:13;;;;;;;98.37;93.37;;;15.00;99.90;;;;;;4970377;28;20185;-80
2022/09/11 03:11:39;;;;;;;63.40;60.17;;;15.00;99.90;;;;;;4969822;28;20188;-80
2022/09/11 03:14:05;;;;;;;27.43;25.90;;;15.00;99.90;;;;;;4970445;28;20604;-79
2022/09/11 03:16:31;;;;;;;13.03;12.43;;;15.00;99.90;;;;;;4962415;28;20234;-80
2022/09/11 03:18:58;;;;;;;10.13;9.33;;;15.00;99.90;;;;;;4928776;29;20204;-77
2022/09/11 03:21:23;;;;;;;18.77;17.67;;;15.00;99.90;;;;;;4928222;29;20182;-79
2022/09/11 03:23:49;;;;;;;30.03;28.30;;;15.00;99.90;;;;;;4924469;29;20218;-77
2022/09/11 03:26:16;;;;;;;35.80;33.57;;;15.00;99.90;;;;;;4924176;29;20270;-78
2022/09/11 03:28:43;;;;;;;41.10;38.63;;;15.00;99.90;;;;;;4939192;29;20194;-78
2022/09/11 03:31:09;;;;;;;38.00;35.80;;;15.00;99.90;;;;;;4951705;29;20186;-77
2022/09/11 03:33:35;;;;;;;44.43;42.23;;;15.00;99.90;;;;;;4937892;29;20186;-77
2022/09/11 03:36:02;;;;;;;38.83;36.90;;;15.00;99.90;;;;;;4937936;29;20221;-77
2022/09/11 03:38:28;;;;;;;47.43;44.97;;;15.00;99.90;;;;;;4940619;29;20284;-77
2022/09/11 03:40:54;;;;;;;47.63;45.00;;;15.00;99.90;;;;;;4959042;29;20214;-77
2022/09/11 03:43:20;;;;;;;46.20;43.40;;;14.90;99.90;;;;;;4940760;29;20241;-77
2022/09/11 03:45:53;;;;;;;48.03;45.47;;;15.00;99.90;;;;;;4941811;29;20202;-77
2022/09/11 03:48:19;;;;;;;49.00;46.50;;;15.00;99.90;;;;;;4941857;29;20205;-77
2022/09/11 03:50:46;;;;;;;42.10;39.80;;;15.00;99.90;;;;;;4945173;29;20200;-78
2022/09/11 03:53:12;;;;;;;31.33;29.20;;;15.00;99.90;;;;;;4967198;29;20195;-78
2022/09/11 03:55:39;;;;;;;21.57;20.33;;;15.00;99.90;;;;;;4964852;28;20252;-78
2022/09/11 03:58:08;;;;;;;39.80;37.60;;;15.10;99.90;;;;;;4963667;29;20272;-79
2022/09/11 04:00:35;;;;;;;37.40;35.30;;;15.10;99.90;;;;;;4946377;29;20217;-79
2022/09/11 04:03:01;;;;;;;22.77;20.77;;;15.10;99.90;;;;;;4944312;29;20874;-79
2022/09/11 04:05:27;;;;;;;20.93;19.20;;;15.10;99.90;;;;;;4945236;29;20293;-79
2022/09/11 04:07:53;;;;;;;19.33;18.17;;;15.10;99.90;;;;;;4941604;29;20185;-79
2022/09/11 04:10:20;;;;;;;19.03;17.83;;;15.20;99.90;;;;;;4946506;29;20181;-78
2022/09/11 04:12:47;;;;;;;18.57;17.50;;;15.20;99.90;;;;;;4967494;29;20198;-77
2022/09/11 04:15:13;;;;;;;21.10;19.87;;;15.20;99.90;;;;;;4945934;29;20276;-77
2022/09/11 04:17:40;;;;;;;20.13;18.83;;;15.20;99.90;;;;;;4941885;29;20474;-77
2022/09/11 04:20:07;;;;;;;15.77;14.27;;;15.10;99.90;;;;;;4944432;29;20181;-77
2022/09/11 04:22:33;;;;;;;15.40;14.30;;;15.20;99.90;;;;;;4962162;29;20221;-78
2022/09/11 04:25:00;;;;;;;15.07;14.07;;;15.20;99.90;;;;;;4946227;29;20557;-77
2022/09/11 04:27:28;;;;;;;9.93;9.30;;;15.20;99.90;;;;;;4928632;29;20269;-77
2022/09/11 04:29:54;;;;;;;9.67;8.83;;;15.20;99.90;;;;;;4961676;28;20186;-78
2022/09/11 04:32:19;;;;;;;12.47;11.70;;;15.30;99.90;;;;;;4942434;29;20185;-77
2022/09/11 04:34:45;;;;;;;12.13;11.17;;;15.30;99.90;;;;;;4943150;29;20708;-78
2022/09/11 04:37:12;;;;;;;17.50;16.57;;;15.30;99.90;;;;;;4943271;29;20185;-78
2022/09/11 04:39:38;;;;;;;24.10;22.73;;;15.30;99.90;;;;;;4959451;29;20673;-78
2022/09/11 04:42:05;;;;;;;24.17;22.73;;;15.30;99.90;;;;;;4960743;29;20196;-77
2022/09/11 04:44:35;;;;;;;39.40;36.93;;;15.30;99.90;;;;;;4941668;29;20181;-77
2022/09/11 04:47:02;;;;;;;19.20;18.13;;;15.30;99.90;;;;;;4938698;29;20217;-76
2022/09/11 04:49:28;;;;;;;27.80;26.07;;;15.30;99.90;;;;;;4955699;29;20258;-77
2022/09/11 04:51:54;;;;;;;23.00;21.17;;;15.30;99.90;;;;;;4958059;28;20217;-77
2022/09/11 04:54:20;;;;;;;32.20;30.13;;;15.30;99.90;;;;;;4939759;29;20178;-77
2022/09/11 04:56:46;;;;;;;31.43;29.43;;;15.30;99.90;;;;;;4945131;29;20869;-77
2022/09/11 04:59:15;;;;;;;19.87;18.70;;;15.30;99.90;;;;;;4936868;29;20639;-78
2022/09/11 05:01:42;;;;;;;17.83;16.77;;;15.30;99.90;;;;;;4925646;29;20190;-76
2022/09/11 05:04:17;;;;;;;51.23;47.93;;;15.30;99.90;;;;;;4932666;29;20229;-79
2022/09/11 05:06:47;;;;;;;62.37;58.77;;;15.40;99.90;;;;;;4950020;29;20224;-77
2022/09/11 05:09:15;;;;;;;61.67;58.27;;;15.40;99.90;;;;;;4931917;29;20206;-78
2022/09/11 05:11:41;;;;;;;60.57;57.13;;;15.40;99.90;;;;;;4944169;29;20186;-77
2022/09/11 05:14:07;;;;;;;62.07;58.47;;;15.40;99.90;;;;;;4945540;29;20188;-77
2022/09/11 05:16:35;;;;;;;63.13;59.20;;;15.40;99.90;;;;;;4924712;29;20210;-77
2022/09/11 05:19:03;;;;;;;54.80;51.77;;;15.40;99.90;;;;;;4930384;29;20193;-77
2022/09/11 05:21:29;;;;;;;48.70;46.00;;;15.50;99.90;;;;;;4942674;29;20197;-77
2022/09/11 05:23:57;;;;;;;48.07;45.23;;;15.50;99.90;;;;;;4921555;29;20221;-77
2022/09/11 05:26:25;;;;;;;48.63;45.73;;;15.50;99.90;;;;;;4940374;29;20222;-77
2022/09/11 05:28:54;;;;;;;51.17;48.13;;;15.50;99.90;;;;;;4924197;29;20187;-79
2022/09/11 05:31:21;;;;;;;56.60;53.17;;;15.50;99.90;;;;;;4927664;29;20246;-79
2022/09/11 05:33:47;;;;;;;35.10;33.13;;;15.50;99.90;;;;;;4926040;29;20210;-79
2022/09/11 05:36:14;;;;;;;24.07;22.40;;;15.50;99.90;;;;;;4944529;29;20690;-78
2022/09/11 05:38:40;;;;;;;26.73;24.93;;;15.50;99.90;;;;;;4927938;29;20190;-78
2022/09/11 05:41:09;;;;;;;18.50;16.93;;;15.60;99.90;;;;;;4925886;29;20714;-77
2022/09/11 05:43:36;;;;;;;16.13;14.50;;;15.60;99.90;;;;;;4940485;29;20209;-76
2022/09/11 05:46:02;;;;;;;21.70;20.20;;;15.60;99.90;;;;;;4920170;29;20198;-76
2022/09/11 05:48:29;;;;;;;14.60;13.60;;;15.70;99.90;;;;;;4928007;29;20550;-75
2022/09/11 05:50:58;;;;;;;15.47;13.97;;;15.70;99.90;;;;;;4938790;29;20245;-75
2022/09/11 05:53:25;;;;;;;24.70;22.80;;;15.70;99.90;;;;;;4919602;29;20541;-76
2022/09/11 05:55:51;;;;;;;32.80;30.83;;;15.70;99.90;;;;;;4936270;29;20277;-75
2022/09/11 05:58:17;;;;;;;61.60;58.37;;;15.70;99.90;;;;;;4918088;29;20191;-75
2022/09/11 06:00:45;;;;;;;105.97;100.03;;;15.70;99.90;;;;;;4929826;29;20194;-75
2022/09/11 06:03:12;;;;;;;119.83;113.13;;;15.70;99.90;;;;;;4938510;29;20221;-76
2022/09/11 06:05:39;;;;;;;123.40;116.63;;;15.80;99.90;;;;;;4955098;29;20202;-76
2022/09/11 06:08:06;;;;;;;129.20;122.47;;;15.80;99.90;;;;;;4937362;29;20181;-75
2022/09/11 06:10:32;;;;;;;151.13;143.13;;;15.80;99.90;;;;;;4938186;29;20585;-75
2022/09/11 06:13:01;;;;;;;172.03;162.83;;;15.90;99.90;;;;;;4954804;29;20193;-75
2022/09/11 06:15:28;;;;;;;174.80;165.50;;;15.90;99.90;;;;;;4938183;29;20405;-76
2022/09/11 06:17:54;;;;;;;188.30;177.87;;;15.90;99.90;;;;;;4937913;29;20185;-76
2022/09/11 06:20:20;;;;;;;163.33;154.73;;;16.00;99.90;;;;;;4939089;29;20216;-76
2022/09/11 06:22:47;;;;;;;95.07;89.40;;;16.10;99.90;;;;;;4955713;28;20241;-75
2022/09/11 06:25:12;;;;;;;58.83;55.33;;;16.20;99.90;;;;;;4955312;29;20202;-75
2022/09/11 06:27:38;;;;;;;51.23;48.33;;;16.10;99.90;;;;;;4953886;28;20190;-74
2022/09/11 06:30:04;;;;;;;40.17;37.63;;;16.10;99.90;;;;;;4937141;29;20185;-76
2022/09/11 06:32:30;;;;;;;35.07;32.97;;;16.10;99.90;;;;;;4954747;29;20217;-76
2022/09/11 06:34:57;;;;;;;36.60;34.50;;;16.10;99.90;;;;;;4952779;28;20718;-76
2022/09/11 06:37:23;;;;;;;34.83;32.57;;;16.10;99.90;;;;;;4937572;29;20198;-76
2022/09/11 06:39:49;;;;;;;33.83;31.60;;;16.10;99.90;;;;;;4955402;29;20197;-76
2022/09/11 06:42:15;;;;;;;26.83;25.23;;;16.10;99.90;;;;;;4954201;29;20216;-75
2022/09/11 06:44:41;;;;;;;31.60;29.43;;;16.10;99.90;;;;;;4955339;29;20248;-76
2022/09/11 06:47:07;;;;;;;25.07;23.20;;;16.20;99.90;;;;;;4954232;28;20635;-75
2022/09/11 06:49:33;;;;;;;19.17;17.50;;;16.10;99.90;;;;;;4938479;29;20182;-75
2022/09/11 06:51:58;;;;;;;15.67;14.37;;;16.10;99.90;;;;;;4940607;29;20555;-76
2022/09/11 06:54:24;;;;;;;13.93;12.80;;;16.10;99.90;;;;;;4934958;29;20209;-76
2022/09/11 06:56:50;;;;;;;16.20;14.90;;;16.10;99.90;;;;;;4933866;29;20222;-76
2022/09/11 06:59:16;;;;;;;20.60;19.27;;;16.20;99.90;;;;;;4919100;29;20193;-75
2022/09/11 07:01:43;;;;;;;15.50;14.07;;;16.10;99.90;;;;;;4953210;29;20186;-78
2022/09/11 07:04:09;;;;;;;15.70;14.73;;;16.20;99.90;;;;;;4937099;29;20217;-76
2022/09/11 07:06:37;;;;;;;16.97;15.37;;;16.20;99.90;;;;;;4937681;29;20194;-76
2022/09/11 07:09:03;;;;;;;14.73;13.33;;;16.20;99.90;;;;;;4954419;29;20658;-75
2022/09/11 07:11:33;;;;;;;15.53;13.90;;;16.30;99.90;;;;;;4954373;29;20178;-75
2022/09/11 07:14:04;;;;;;;21.10;19.90;;;16.30;99.90;;;;;;4954698;29;20189;-75
2022/09/11 07:16:32;;;;;;;19.57;17.93;;;16.40;99.90;;;;;;4937903;29;20211;-75
2022/09/11 07:18:58;;;;;;;19.80;18.37;;;16.40;99.90;;;;;;4935938;29;20181;-75
2022/09/11 07:21:26;;;;;;;32.80;30.50;;;16.40;99.90;;;;;;4954540;29;20182;-75
2022/09/11 07:23:55;;;;;;;33.07;30.97;;;16.40;99.90;;;;;;4954135;29;20694;-76
2022/09/11 07:26:23;;;;;;;35.87;33.60;;;16.40;99.90;;;;;;4936535;29;20224;-75
2022/09/11 07:28:50;;;;;;;51.57;48.57;;;16.50;99.90;;;;;;4951943;29;20178;-76
2022/09/11 07:31:19;;;;;;;56.77;53.57;;;16.50;99.90;;;;;;4937657;29;20182;-75
2022/09/11 07:33:49;;;;;;;51.20;47.93;;;16.50;99.90;;;;;;4953435;29;20190;-75
2022/09/11 07:36:18;;;;;;;61.10;57.80;;;16.50;99.90;;;;;;4954321;29;20216;-75
2022/09/11 07:38:45;;;;;;;58.10;54.90;;;16.60;99.90;;;;;;4953074;29;20272;-76
2022/09/11 07:41:13;;;;;;;38.60;36.10;;;16.80;99.90;;;;;;4953666;29;20189;-76
2022/09/11 07:43:47;;;;;;;16.07;14.70;;;17.00;99.90;;;;;;4936928;29;20770;-76
2022/09/11 07:46:13;;;;;;;12.87;11.87;;;17.20;99.90;;;;;;4937025;29;20555;-76
2022/09/11 07:48:41;;;;;;;23.70;22.17;;;17.60;99.90;;;;;;4951728;28;20611;-75
2022/09/11 07:51:10;;;;;;;54.17;51.17;;;17.70;99.90;;;;;;4951175;28;20562;-76
2022/09/11 07:53:38;;;;;;;34.03;32.07;;;18.00;99.90;;;;;;4934695;29;20261;-77
2022/09/11 07:56:07;;;;;;;16.83;15.53;;;18.10;99.90;;;;;;4933788;29;20222;-75
2022/09/11 07:58:34;;;;;;;28.90;27.03;;;18.00;99.90;;;;;;4933154;29;20274;-75
2022/09/11 08:01:02;;;;;;;43.13;40.83;;;18.10;99.90;;;;;;4917790;29;20273;-76
2022/09/11 08:03:31;;;;;;;32.73;30.87;;;18.30;99.90;;;;;;4917011;29;20691;-76
2022/09/11 08:06:05;;;;;;;23.63;22.13;;;18.20;99.90;;;;;;4918003;29;20652;-76
2022/09/11 08:08:31;;;;;;;29.50;27.90;;;18.30;99.90;;;;;;4933790;29;20190;-76
2022/09/11 08:11:03;;;;;;;22.67;20.83;;;18.40;99.90;;;;;;4946814;29;20186;-76
2022/09/11 08:13:30;;;;;;;18.37;17.07;;;18.50;99.90;;;;;;4953068;29;20193;-75
2022/09/11 08:15:56;;;;;;;13.53;12.57;;;18.60;99.90;;;;;;4936633;29;20735;-76
2022/09/11 08:18:22;;;;;;;16.20;14.67;;;18.80;99.90;;;;;;4954021;29;20209;-76
2022/09/11 08:20:47;;;;;;;15.30;14.13;;;18.80;99.90;;;;;;4954571;29;20256;-76
2022/09/11 08:23:16;;;;;;;37.33;29.10;;;18.70;99.90;;;;;;4953783;29;20220;-76
2022/09/11 08:25:44;;;;;;;16.63;15.23;;;18.60;99.90;;;;;;4936840;29;20198;-75
2022/09/11 08:28:10;;;;;;;18.47;16.70;;;18.50;99.90;;;;;;4935777;29;20185;-75
2022/09/11 08:30:39;;;;;;;15.33;13.93;;;18.40;99.90;;;;;;4953415;29;20181;-77
2022/09/11 08:33:07;;;;;;;14.60;13.33;;;18.30;99.90;;;;;;4951890;29;20186;-76
2022/09/11 08:35:34;;;;;;;13.77;12.70;;;18.20;99.90;;;;;;4953466;29;20288;-76
2022/09/11 08:38:00;;;;;;;12.97;11.87;;;18.10;99.90;;;;;;4935502;29;20182;-76
2022/09/11 08:40:29;;;;;;;12.60;11.70;;;18.10;99.90;;;;;;4953549;29;20181;-76
2022/09/11 08:42:59;;;;;;;11.93;10.90;;;18.10;99.90;;;;;;4953426;28;20686;-76
2022/09/11 08:45:30;;;;;;;12.57;11.63;;;18.30;99.90;;;;;;4936406;29;20205;-75
2022/09/11 08:47:57;;;;;;;13.73;12.63;;;18.50;99.90;;;;;;4952417;29;20186;-75
2022/09/11 08:50:40;;;;;;;15.40;14.17;;;18.90;99.90;;;;;;4954001;29;20213;-77
2022/09/11 08:53:14;;;;;;;28.10;26.40;;;19.70;99.90;;;;;;4953467;28;20276;-77
2022/09/11 08:55:48;;;;;;;17.73;16.53;;;20.30;99.90;;;;;;4953199;28;20221;-75
2022/09/11 08:58:26;;;;;;;24.53;22.93;;;20.50;99.90;;;;;;4952684;29;20195;-76
2022/09/11 09:01:17;;;;;;;17.17;15.60;;;20.10;99.90;;;;;;4953461;29;20563;-76
2022/09/11 09:03:49;;;;;;;44.07;41.33;;;19.30;99.90;;;;;;4954255;29;20303;-76
2022/09/11 09:06:39;;;;;;;29.70;27.93;;;18.70;99.90;;;;;;4953156;28;20281;-76
2022/09/11 09:09:35;;;;;;;12.40;11.40;;;18.10;99.90;;;;;;4935109;29;20205;-76
2022/09/11 09:12:26;;;;;;;31.80;29.53;;;17.70;99.90;;;;;;4952693;29;20184;-76
2022/09/11 09:15:06;;;;;;;11.70;10.77;;;17.60;99.90;;;;;;4935080;29;20201;-76
2022/09/11 09:17:48;;;;;;;14.87;13.67;;;17.80;99.90;;;;;;4951028;29;20189;-76
2022/09/11 09:20:20;;;;;;;19.10;17.40;;;18.20;99.90;;;;;;4935880;29;20205;-74
2022/09/11 09:22:56;;;;;;;19.80;18.43;;;18.40;99.90;;;;;;4952646;28;20237;-75
2022/09/11 09:25:24;;;;;;;24.97;23.23;;;18.70;99.90;;;;;;4952964;29;20352;-75
2022/09/11 09:28:05;;;;;;;38.17;35.97;;;19.00;99.90;;;;;;4934692;29;20596;-74
2022/09/11 09:30:43;;;;;;;12.10;10.93;;;19.50;99.90;;;;;;4952670;29;20192;-75
2022/09/11 09:33:21;;;;;;;30.47;28.73;;;20.40;99.90;;;;;;4935587;29;20632;-75
2022/09/11 09:35:47;;;;;;;28.50;26.77;;;21.30;99.90;;;;;;4935800;29;20197;-76
2022/09/11 09:38:15;;;;;;;11.07;10.37;;;22.20;99.90;;;;;;4950863;29;20718;-75
2022/09/11 09:40:53;;;;;;;7.53;6.93;;;23.00;99.90;;;;;;4951927;29;20667;-76
2022/09/11 09:43:51;;;;;;;29.35;27.85;;;24.10;99.90;;;;;;4952512;28;20213;-76
2022/09/11 09:46:30;;;;;;;116.50;110.85;;;23.90;99.90;;;;;;4952389;28;20620;-75
2022/09/11 09:48:56;;;;;;;69.23;65.77;;;22.30;99.90;;;;;;4937625;29;20185;-75
2022/09/11 09:51:22;;;;;;;8.07;7.47;;;21.50;99.90;;;;;;4954632;29;20623;-75
2022/09/11 09:53:53;;;;;;;7.37;6.60;;;20.70;99.90;;;;;;4935649;29;20265;-75
2022/09/11 09:56:22;;;;;;;7.13;6.33;;;20.40;99.90;;;;;;4952328;28;20313;-75
2022/09/11 09:58:59;;;;;;;7.43;6.60;;;20.20;99.90;;;;;;4952253;29;20596;-77
2022/09/11 10:01:45;;;;;;;7.37;6.77;;;20.50;99.90;;;;;;4953012;28;20204;-75
2022/09/11 10:04:15;;;;;;;7.43;6.83;;;20.60;99.90;;;;;;4952901;29;20224;-75
2022/09/11 10:06:44;;;;;;;7.90;7.10;;;20.90;99.90;;;;;;4951897;29;20210;-75
2022/09/11 10:09:30;;;;;;;6.90;6.47;;;21.10;99.90;;;;;;4952385;29;20257;-76
2022/09/11 10:12:01;;;;;;;7.07;6.57;;;20.80;99.90;;;;;;4952345;29;20193;-76
2022/09/11 10:14:31;;;;;;;7.43;6.83;;;20.70;99.90;;;;;;4936398;29;20248;-74
2022/09/11 10:16:59;;;;;;;7.10;6.60;;;20.60;99.90;;;;;;4933842;29;20194;-76
2022/09/11 10:19:40;;;;;;;7.83;7.23;;;20.70;99.90;;;;;;4951526;29;20733;-74
2022/09/11 10:22:22;;;;;;;6.83;6.40;;;20.80;99.90;;;;;;4953075;28;20185;-75
2022/09/11 10:25:13;;;;;;;8.07;7.57;;;20.90;99.90;;;;;;4955487;29;20194;-74
2022/09/11 10:27:48;;;;;;;7.70;7.10;;;20.90;99.90;;;;;;4955137;28;20731;-75
2022/09/11 10:30:30;;;;;;;8.50;7.87;;;20.90;99.90;;;;;;4956430;28;20276;-75
2022/09/11 10:32:57;;;;;;;9.00;8.30;;;21.00;99.90;;;;;;4939638;29;20196;-74
2022/09/11 10:35:26;;;;;;;10.83;9.73;;;21.30;99.90;;;;;;4955961;29;20244;-77
2022/09/11 10:38:19;;;;;;;29.23;27.50;;;21.50;99.90;;;;;;4954047;28;20186;-75
2022/09/11 10:41:18;;;;;;;42.83;40.50;;;21.70;99.90;;;;;;4949422;29;20198;-77
2022/09/11 10:44:00;;;;;;;156.80;148.63;;;21.90;99.90;;;;;;4920951;29;20229;-74
2022/09/11 10:46:36;;;;;;;101.30;96.32;;;22.40;99.90;;;;;;4955184;29;20209;-74
2022/09/11 10:49:01;;;;;;;139.83;133.00;;;22.50;99.90;;;;;;4937692;29;20184;-74
2022/09/11 10:51:30;;;;;;;119.75;113.72;;;22.20;99.90;;;;;;4955570;29;20178;-76
2022/09/11 10:54:02;;;;;;;146.60;139.40;;;22.10;99.90;;;;;;4955305;29;20212;-75
2022/09/11 10:56:28;;;;;;;200.43;190.80;;;21.90;99.90;;;;;;4938342;29;20272;-75
2022/09/11 10:59:02;;;;;;;103.35;98.38;;;22.00;99.90;;;;;;4954512;29;20178;-75
2022/09/11 11:01:28;;;;;;;97.10;92.40;;;22.00;99.90;;;;;;4954129;29;20181;-75
2022/09/11 11:03:55;;;;;;;59.08;56.10;;;22.60;99.90;;;;;;4954906;29;20220;-74
2022/09/11 11:06:48;;;;;;;66.17;62.93;;;23.10;99.90;;;;;;4954515;28;20205;-75
2022/09/11 11:09:28;;;;;;;13.50;12.70;;;24.20;99.90;;;;;;4954996;29;20182;-75
2022/09/11 11:12:08;;;;;;;8.73;7.68;;;25.10;99.90;;;;;;4954172;28;20662;-75
2022/09/11 11:15:12;;;;;;;10.63;9.90;;;25.00;99.90;;;;;;4938080;29;20202;-75
2022/09/11 11:17:41;;;;;;;10.15;9.55;;;24.70;99.90;;;;;;4861214;29;20317;-75
2022/09/11 11:20:42;;;;;;;11.10;10.40;;;24.60;99.90;;;;;;4942111;29;20186;-75
2022/09/11 11:23:36;;;;;;;11.68;11.00;;;24.50;99.90;;;;;;4938591;29;20221;-75
2022/09/11 11:26:15;;;;;;;16.75;15.70;;;24.10;99.90;;;;;;4925422;29;20211;-75
2022/09/11 11:28:59;;;;;;;17.08;16.08;;;24.10;99.90;;;;;;4933860;29;20183;-75
2022/09/11 11:31:59;;;;;;;18.20;17.08;;;23.60;99.90;;;;;;4935477;29;20265;-75
2022/09/11 11:34:50;;;;;;;13.77;13.02;;;23.30;99.90;;;;;;4917454;28;20178;-73
2022/09/11 11:37:26;;;;;;;13.18;12.48;;;22.80;99.90;;;;;;4938320;29;20197;-76
2022/09/11 11:40:03;;;;;;;18.73;17.42;;;22.50;99.90;;;;;;4934756;29;20191;-75
2022/09/11 11:42:34;;;;;;;39.97;37.78;;;22.10;99.90;;;;;;4953791;28;20224;-75
2022/09/11 11:45:15;;;;;;;38.90;36.97;;;21.70;99.90;;;;;;4954347;29;20205;-75
2022/09/11 11:47:42;;;;;;;36.10;34.33;;;22.40;99.90;;;;;;4952690;29;20680;-73
2022/09/11 11:50:15;;;;;;;22.52;21.42;;;24.20;99.90;;;;;;4955845;29;20643;-74
2022/09/11 11:53:07;;;;;;;13.93;12.98;;;26.10;99.90;;;;;;4953921;29;20275;-74
2022/09/11 11:55:45;;;;;;;14.85;14.02;;;26.20;99.90;;;;;;4936158;29;20218;-74
2022/09/11 11:58:31;;;;;;;15.15;14.38;;;25.30;99.90;;;;;;4936418;29;20213;-76
2022/09/11 12:01:02;;;;;;;18.10;17.10;;;24.50;99.90;;;;;;4939760;28;20225;-76
2022/09/11 12:03:43;;;;;;;15.77;14.77;;;23.80;99.90;;;;;;4947884;28;20212;-74
2022/09/11 12:06:10;;;;;;;14.73;13.82;;;23.90;99.90;;;;;;4956271;28;20239;-74
2022/09/11 12:08:42;;;;;;;13.35;12.55;;;24.30;99.90;;;;;;4955125;28;20654;-74
2022/09/11 12:11:11;;;;;;;13.10;12.40;;;24.40;99.90;;;;;;4973205;28;20205;-73
2022/09/11 12:13:42;;;;;;;10.27;9.27;;;24.30;99.90;;;;;;4955934;28;20181;-73
2022/09/11 12:16:16;;;;;;;6.85;6.45;;;25.80;99.90;;;;;;4956127;28;20228;-73
2022/09/11 12:19:13;;;;;;;7.38;6.85;;;26.20;99.90;;;;;;4955294;28;20293;-73
2022/09/11 12:21:41;;;;;;;6.22;5.85;;;26.30;99.90;;;;;;4945225;28;20196;-73
2022/09/11 12:24:11;;;;;;;5.60;5.28;;;27.60;99.90;;;;;;4968494;28;20268;-73
2022/09/11 12:26:37;;;;;;;5.85;5.45;;;29.20;99.80;;;;;;4973031;28;20292;-73
2022/09/11 12:29:13;;;;;;;5.53;5.10;;;29.80;97.80;;;;;;4972151;28;20180;-74
2022/09/11 12:31:48;;;;;;;5.57;5.30;;;27.80;96.80;;;;;;4972467;28;20188;-74
2022/09/11 12:34:16;;;;;;;7.45;6.78;;;25.90;99.00;;;;;;4972846;28;20180;-73
2022/09/11 12:37:04;;;;;;;5.25;4.95;;;25.80;99.90;;;;;;4955410;28;20705;-73
2022/09/11 12:39:43;;;;;;;5.47;5.18;;;26.80;99.90;;;;;;4955582;28;20603;-73
2022/09/11 12:42:38;;;;;;;5.20;4.85;;;26.60;99.80;;;;;;4972503;28;20188;-72
2022/09/11 12:45:24;;;;;;;6.55;6.22;;;25.50;99.90;;;;;;4903289;28;20216;-73
2022/09/11 12:47:50;;;;;;;6.45;5.78;;;25.50;99.90;;;;;;4955908;28;20650;-72
2022/09/11 12:50:23;;;;;;;12.35;11.25;;;24.80;99.90;;;;;;4950955;29;20181;-75
2022/09/11 12:52:55;;;;;;;16.90;15.23;;;24.10;99.90;;;;;;4953031;29;20269;-74